createdAt,value
2018-07-30T00:00:44.146Z,95543.00
2018-07-30T00:03:15.112Z,95545.00
2018-07-30T00:05:46.024Z,95546.00
2018-07-30T00:08:16.844Z,95545.00
2018-07-30T00:10:47.943Z,95541.00
2018-07-30T00:13:18.995Z,95544.00
2018-07-30T00:15:50.074Z,95540.00
2018-07-30T00:18:21.575Z,95544.00
2018-07-30T00:20:52.680Z,95544.00
2018-07-30T00:23:23.818Z,95544.00
2018-07-30T00:25:55.024Z,95540.00
2018-07-30T00:28:26.319Z,95538.00
2018-07-30T00:30:57.623Z,95537.00
2018-07-30T00:33:28.513Z,95546.00
2018-07-30T00:35:59.570Z,95549.00
2018-07-30T00:38:30.840Z,95553.00
2018-07-30T00:41:01.840Z,95555.00
2018-07-30T00:43:33.437Z,95555.00
2018-07-30T00:46:05.025Z,95561.00
2018-07-30T00:48:36.100Z,95565.00
2018-07-30T00:51:07.004Z,95565.00
2018-07-30T00:53:38.016Z,95560.00
2018-07-30T00:56:12.567Z,95564.00
2018-07-30T00:58:46.145Z,95560.00
2018-07-30T01:01:17.294Z,95559.00
2018-07-30T01:03:50.661Z,95560.00
2018-07-30T01:06:21.631Z,95563.00
2018-07-30T01:08:52.449Z,95564.00
2018-07-30T01:11:23.492Z,95567.00
2018-07-30T01:13:54.529Z,95564.00
2018-07-30T01:16:25.697Z,95567.00
2018-07-30T01:18:56.635Z,95567.00
2018-07-30T01:21:27.939Z,95570.00
2018-07-30T01:23:58.967Z,95574.00
2018-07-30T01:26:30.484Z,95570.00
2018-07-30T01:29:01.459Z,95572.00
2018-07-30T01:31:32.456Z,95573.00
2018-07-30T01:34:03.831Z,95576.00
2018-07-30T01:36:34.885Z,95574.00
2018-07-30T01:39:08.038Z,95572.00
2018-07-30T01:41:38.871Z,95572.00
2018-07-30T01:44:10.270Z,95570.00
2018-07-30T01:46:41.182Z,95574.00
2018-07-30T01:49:12.128Z,95572.00
2018-07-30T01:51:43.858Z,95575.00
2018-07-30T01:54:14.731Z,95576.00
2018-07-30T01:56:45.688Z,95571.00
2018-07-30T01:59:16.826Z,95572.00
2018-07-30T02:01:47.851Z,95572.00
2018-07-30T02:04:19.180Z,95574.00
2018-07-30T02:06:50.858Z,95574.00
2018-07-30T02:09:21.747Z,95572.00
2018-07-30T02:11:52.755Z,95568.00
2018-07-30T02:14:23.623Z,95571.00
2018-07-30T02:16:54.630Z,95570.00
2018-07-30T02:19:25.689Z,95569.00
2018-07-30T02:21:56.735Z,95571.00
2018-07-30T02:24:28.698Z,95576.00
2018-07-30T02:26:59.750Z,95571.00
2018-07-30T02:29:30.589Z,95572.00
2018-07-30T02:32:02.110Z,95573.00
2018-07-30T02:34:33.220Z,95576.00
2018-07-30T02:37:04.418Z,95580.00
2018-07-30T02:39:35.249Z,95582.00
2018-07-30T02:42:06.835Z,95579.00
2018-07-30T02:44:37.804Z,95581.00
2018-07-30T02:47:08.997Z,95585.00
2018-07-30T02:49:40.277Z,95586.00
2018-07-30T02:52:11.228Z,95587.00
2018-07-30T02:54:42.086Z,95587.00
2018-07-30T02:57:13.211Z,95594.00
2018-07-30T02:59:44.217Z,95591.00
2018-07-30T03:02:15.120Z,95596.00
2018-07-30T03:04:46.219Z,95595.00
2018-07-30T03:07:17.582Z,95596.00
2018-07-30T03:09:49.208Z,95598.00
2018-07-30T03:12:25.660Z,95599.00
2018-07-30T03:14:56.944Z,95599.00
2018-07-30T03:17:27.910Z,95604.00
2018-07-30T03:19:58.890Z,95605.00
2018-07-30T03:22:29.818Z,95608.00
2018-07-30T03:25:01.130Z,95608.00
2018-07-30T03:27:32.262Z,95605.00
2018-07-30T03:30:03.495Z,95609.00
2018-07-30T03:32:34.902Z,95605.00
2018-07-30T03:35:06.487Z,95604.00
2018-07-30T03:37:37.447Z,95602.00
2018-07-30T03:40:08.563Z,95601.00
2018-07-30T03:42:39.714Z,95611.00
2018-07-30T03:45:11.183Z,95607.00
2018-07-30T03:47:42.353Z,95607.00
2018-07-30T03:50:15.799Z,95606.00
2018-07-30T03:52:47.920Z,95603.00
2018-07-30T03:55:19.102Z,95608.00
2018-07-30T03:57:59.404Z,95614.00
2018-07-30T04:00:38.054Z,95613.00
2018-07-30T04:03:09.529Z,95614.00
2018-07-30T04:05:40.889Z,95614.00
2018-07-30T04:08:11.815Z,95610.00
2018-07-30T04:10:43.131Z,95609.00
2018-07-30T04:13:14.312Z,95610.00
2018-07-30T04:15:45.301Z,95613.00
2018-07-30T04:18:16.136Z,95615.00
2018-07-30T04:20:47.439Z,95613.00
2018-07-30T04:23:18.263Z,95606.00
2018-07-30T04:25:49.307Z,95612.00
2018-07-30T04:28:20.291Z,95613.00
2018-07-30T04:30:52.414Z,95614.00
2018-07-30T04:33:23.315Z,95613.00
2018-07-30T04:35:54.595Z,95609.00
2018-07-30T04:38:25.337Z,95610.00
2018-07-30T04:40:56.656Z,95610.00
2018-07-30T04:43:27.916Z,95609.00
2018-07-30T04:45:59.235Z,95603.00
2018-07-30T04:48:30.215Z,95601.00
2018-07-30T04:51:01.346Z,95607.00
2018-07-30T04:53:32.379Z,95600.00
2018-07-30T04:56:03.356Z,95605.00
2018-07-30T04:58:34.452Z,95604.00
2018-07-30T05:01:05.471Z,95610.00
2018-07-30T05:03:37.930Z,95609.00
2018-07-30T05:06:12.335Z,95611.00
2018-07-30T05:08:43.199Z,95614.00
2018-07-30T05:11:14.792Z,95614.00
2018-07-30T05:13:45.963Z,95615.00
2018-07-30T05:16:17.309Z,95615.00
2018-07-30T05:18:48.495Z,95617.00
2018-07-30T05:21:19.404Z,95619.00
2018-07-30T05:23:50.465Z,95619.00
2018-07-30T05:26:21.995Z,95627.00
2018-07-30T05:28:52.959Z,95625.00
2018-07-30T05:31:24.322Z,95623.00
2018-07-30T05:33:55.243Z,95622.00
2018-07-30T05:36:26.279Z,95625.00
2018-07-30T05:38:57.694Z,95622.00
2018-07-30T05:41:29.121Z,95626.00
2018-07-30T05:44:00.014Z,95629.00
2018-07-30T05:46:30.972Z,95629.00
2018-07-30T05:49:02.000Z,95626.00
2018-07-30T05:51:33.420Z,95629.00
2018-07-30T05:54:04.742Z,95634.00
2018-07-30T05:56:35.868Z,95636.00
2018-07-30T05:59:09.779Z,95638.00
2018-07-30T06:01:41.627Z,95633.00
2018-07-30T06:04:12.820Z,95634.00
2018-07-30T06:06:43.771Z,95630.00
2018-07-30T06:09:14.848Z,95636.00
2018-07-30T06:11:46.240Z,95636.00
2018-07-30T06:14:17.192Z,95638.00
2018-07-30T06:16:48.239Z,95635.00
2018-07-30T06:19:19.223Z,95633.00
2018-07-30T06:21:50.311Z,95638.00
2018-07-30T06:24:21.225Z,95639.00
2018-07-30T06:26:52.509Z,95634.00
2018-07-30T06:29:24.213Z,95634.00
2018-07-30T06:31:55.384Z,95632.00
2018-07-30T06:34:28.094Z,95627.00
2018-07-30T06:36:59.268Z,95629.00
2018-07-30T06:39:30.346Z,95628.00
2018-07-30T06:42:02.436Z,95628.00
2018-07-30T06:44:33.396Z,95627.00
2018-07-30T06:47:04.402Z,95628.00
2018-07-30T06:49:35.790Z,95631.00
2018-07-30T06:52:06.987Z,95631.00
2018-07-30T06:54:38.028Z,95634.00
2018-07-30T06:57:09.165Z,95639.00
2018-07-30T06:59:41.297Z,95639.00
2018-07-30T07:02:12.317Z,95637.00
2018-07-30T07:04:43.246Z,95636.00
2018-07-30T07:07:14.108Z,95638.00
2018-07-30T07:09:45.325Z,95636.00
2018-07-30T07:12:17.340Z,95635.00
2018-07-30T07:14:48.376Z,95634.00
2018-07-30T07:17:19.267Z,95636.00
2018-07-30T07:19:50.515Z,95632.00
2018-07-30T07:22:22.143Z,95632.00
2018-07-30T07:24:53.175Z,95640.00
2018-07-30T07:27:24.030Z,95629.00
2018-07-30T07:29:56.008Z,95630.00
2018-07-30T07:32:27.180Z,95630.00
2018-07-30T07:34:58.119Z,95633.00
2018-07-30T07:37:30.260Z,95632.00
2018-07-30T07:40:02.019Z,95631.00
2018-07-30T07:42:35.628Z,95631.00
2018-07-30T07:45:08.599Z,95634.00
2018-07-30T07:47:40.183Z,95632.00
2018-07-30T07:50:11.368Z,95635.00
2018-07-30T07:52:46.572Z,95628.00
2018-07-30T07:55:18.424Z,95632.00
2018-07-30T07:57:49.662Z,95634.00
2018-07-30T08:00:21.046Z,95633.00
2018-07-30T08:02:52.080Z,95635.00
2018-07-30T08:05:23.862Z,95638.00
2018-07-30T08:07:55.408Z,95634.00
2018-07-30T08:10:27.173Z,95628.00
2018-07-30T08:12:59.203Z,95629.00
2018-07-30T08:15:30.713Z,95627.00
2018-07-30T08:18:03.080Z,95626.00
2018-07-30T08:20:34.512Z,95622.00
2018-07-30T08:23:07.047Z,95617.00
2018-07-30T08:25:38.890Z,95618.00
2018-07-30T08:28:10.748Z,95613.00
2018-07-30T08:30:41.757Z,95618.00
2018-07-30T08:33:12.767Z,95615.00
2018-07-30T08:35:43.876Z,95620.00
2018-07-30T08:38:14.891Z,95619.00
2018-07-30T08:40:45.976Z,95620.00
2018-07-30T08:43:16.997Z,95624.00
2018-07-30T08:45:47.959Z,95624.00
2018-07-30T08:48:18.895Z,95623.00
2018-07-30T08:50:50.119Z,95624.00
2018-07-30T08:53:21.945Z,95622.00
2018-07-30T08:55:52.951Z,95623.00
2018-07-30T08:58:23.918Z,95620.00
2018-07-30T09:00:54.991Z,95619.00
2018-07-30T09:03:25.963Z,95613.00
2018-07-30T09:05:57.043Z,95614.00
2018-07-30T09:08:28.133Z,95615.00
2018-07-30T09:10:59.783Z,95611.00
2018-07-30T09:13:30.948Z,95615.00
2018-07-30T09:16:02.082Z,95609.00
2018-07-30T09:18:33.181Z,95616.00
2018-07-30T09:21:04.296Z,95614.00
2018-07-30T09:23:35.392Z,95615.00
2018-07-30T09:26:06.507Z,95621.00
2018-07-30T09:28:37.570Z,95614.00
2018-07-30T09:31:08.578Z,95616.00
2018-07-30T09:33:40.865Z,95617.00
2018-07-30T09:36:11.803Z,95615.00
2018-07-30T09:38:44.823Z,95617.00
2018-07-30T09:41:15.674Z,95614.00
2018-07-30T09:43:47.885Z,95609.00
2018-07-30T09:46:18.980Z,95605.00
2018-07-30T09:48:53.707Z,95609.00
2018-07-30T09:51:24.772Z,95614.00
2018-07-30T09:53:55.726Z,95611.00
2018-07-30T09:56:26.731Z,95615.00
2018-07-30T09:58:58.057Z,95615.00
2018-07-30T10:01:30.792Z,95617.00
2018-07-30T10:04:02.315Z,95613.00
2018-07-30T10:06:33.516Z,95616.00
2018-07-30T10:09:06.620Z,95609.00
2018-07-30T10:11:37.648Z,95608.00
2018-07-30T10:14:09.068Z,95608.00
2018-07-30T10:16:39.968Z,95610.00
2018-07-30T10:19:11.050Z,95608.00
2018-07-30T10:21:42.134Z,95608.00
2018-07-30T10:24:15.065Z,95606.00
2018-07-30T10:26:46.737Z,95605.00
2018-07-30T10:29:17.969Z,95601.00
2018-07-30T10:31:49.329Z,95606.00
2018-07-30T10:34:20.315Z,95607.00
2018-07-30T10:36:51.278Z,95603.00
2018-07-30T10:39:22.408Z,95605.00
2018-07-30T10:41:53.417Z,95602.00
2018-07-30T10:44:24.550Z,95604.00
2018-07-30T10:46:55.591Z,95600.00
2018-07-30T10:49:26.768Z,95605.00
2018-07-30T10:51:57.868Z,95600.00
2018-07-30T10:54:37.939Z,95598.00
2018-07-30T10:57:09.757Z,95603.00
2018-07-30T10:59:40.776Z,95604.00
2018-07-30T11:02:11.819Z,95597.00
2018-07-30T11:04:43.928Z,95599.00
2018-07-30T11:07:15.380Z,95599.00
2018-07-30T11:09:46.396Z,95602.00
2018-07-30T11:12:17.452Z,95599.00
2018-07-30T11:14:48.489Z,95598.00
2018-07-30T11:17:20.096Z,95597.00
2018-07-30T11:19:51.151Z,95594.00
2018-07-30T11:22:23.004Z,95591.00
2018-07-30T11:24:54.131Z,95595.00
2018-07-30T11:27:25.175Z,95594.00
2018-07-30T11:29:56.824Z,95590.00
2018-07-30T11:32:28.114Z,95593.00
2018-07-30T11:34:59.440Z,95592.00
2018-07-30T11:37:31.148Z,95598.00
2018-07-30T11:40:02.370Z,95593.00
2018-07-30T11:42:33.321Z,95586.00
2018-07-30T11:45:04.964Z,95578.00
2018-07-30T11:47:36.810Z,95576.00
2018-07-30T11:50:08.860Z,95581.00
2018-07-30T11:52:39.741Z,95579.00
2018-07-30T11:55:11.164Z,95575.00
2018-07-30T11:57:42.543Z,95576.00
2018-07-30T12:00:14.784Z,95574.00
2018-07-30T12:02:45.638Z,95567.00
2018-07-30T12:05:16.521Z,95554.00
2018-07-30T12:07:47.846Z,95562.00
2018-07-30T12:10:18.957Z,95564.00
2018-07-30T12:12:49.899Z,95566.00
2018-07-30T12:15:20.756Z,95556.00
2018-07-30T12:17:51.773Z,95557.00
2018-07-30T12:20:22.857Z,95556.00
2018-07-30T12:22:54.022Z,95553.00
2018-07-30T12:25:25.209Z,95554.00
2018-07-30T12:27:56.626Z,95549.00
2018-07-30T12:30:28.211Z,95551.00
2018-07-30T12:32:59.075Z,95552.00
2018-07-30T12:35:30.122Z,95551.00
2018-07-30T12:38:01.857Z,95553.00
2018-07-30T12:40:35.374Z,95553.00
2018-07-30T12:43:07.628Z,95550.00
2018-07-30T12:45:46.918Z,95549.00
2018-07-30T12:48:18.021Z,95549.00
2018-07-30T12:50:49.102Z,95547.00
2018-07-30T12:53:20.168Z,95546.00
2018-07-30T12:55:51.770Z,95548.00
2018-07-30T12:58:22.918Z,95547.00
2018-07-30T13:00:54.015Z,95543.00
2018-07-30T13:03:25.884Z,95530.00
2018-07-30T13:05:58.348Z,95536.00
2018-07-30T13:08:29.338Z,95533.00
2018-07-30T13:11:00.280Z,95533.00
2018-07-30T13:13:32.678Z,95530.00
2018-07-30T13:16:03.702Z,95523.00
2018-07-30T13:18:34.814Z,95522.00
2018-07-30T13:21:05.891Z,95525.00
2018-07-30T13:23:37.515Z,95516.00
2018-07-30T13:26:08.608Z,95516.00
2018-07-30T13:28:39.652Z,95514.00
2018-07-30T13:31:10.665Z,95514.00
2018-07-30T13:33:41.667Z,95515.00
2018-07-30T13:36:12.660Z,95512.00
2018-07-30T13:38:43.723Z,95510.00
2018-07-30T13:41:14.791Z,95510.00
2018-07-30T13:43:45.818Z,95509.00
2018-07-30T13:46:16.831Z,95505.00
2018-07-30T13:48:48.399Z,95506.00
2018-07-30T13:51:19.403Z,95503.00
2018-07-30T13:53:50.823Z,95504.00
2018-07-30T13:56:21.808Z,95502.00
2018-07-30T13:58:53.222Z,95497.00
2018-07-30T14:01:24.114Z,95499.00
2018-07-30T14:03:55.150Z,95497.00
2018-07-30T14:06:26.162Z,95496.00
2018-07-30T14:08:57.273Z,95496.00
2018-07-30T14:11:28.275Z,95492.00
2018-07-30T14:13:59.341Z,95493.00
2018-07-30T14:16:30.284Z,95500.00
2018-07-30T14:19:01.424Z,95498.00
2018-07-30T14:21:32.452Z,95501.00
2018-07-30T14:24:03.551Z,95498.00
2018-07-30T14:26:34.829Z,95496.00
2018-07-30T14:29:05.823Z,95491.00
2018-07-30T14:31:36.894Z,95497.00
2018-07-30T14:34:08.098Z,95492.00
2018-07-30T14:36:39.197Z,95490.00
2018-07-30T14:39:11.324Z,95493.00
2018-07-30T14:41:42.195Z,95493.00
2018-07-30T14:44:13.311Z,95484.00
2018-07-30T14:46:44.428Z,95488.00
2018-07-30T14:49:15.620Z,95484.00
2018-07-30T14:51:46.635Z,95484.00
2018-07-30T14:54:17.876Z,95481.00
2018-07-30T14:56:48.757Z,95477.00
2018-07-30T14:59:20.149Z,95476.00
2018-07-30T15:01:51.230Z,95481.00
2018-07-30T15:04:22.333Z,95472.00
2018-07-30T15:06:53.373Z,95477.00
2018-07-30T15:09:24.518Z,95480.00
2018-07-30T15:11:55.840Z,95474.00
2018-07-30T15:14:26.944Z,95474.00
2018-07-30T15:16:58.004Z,95472.00
2018-07-30T15:19:29.850Z,95472.00
2018-07-30T15:22:01.622Z,95471.00
2018-07-30T15:24:32.919Z,95468.00
2018-07-30T15:27:03.951Z,95468.00
2018-07-30T15:29:35.019Z,95467.00
2018-07-30T15:32:06.191Z,95468.00
2018-07-30T15:34:37.351Z,95469.00
2018-07-30T15:37:08.759Z,95468.00
2018-07-30T15:39:39.928Z,95463.00
2018-07-30T15:42:10.931Z,95459.00
2018-07-30T15:44:42.122Z,95461.00
2018-07-30T15:47:13.667Z,95461.00
2018-07-30T15:49:44.820Z,95462.00
2018-07-30T15:52:15.965Z,95463.00
2018-07-30T15:54:47.205Z,95459.00
2018-07-30T15:57:18.173Z,95458.00
2018-07-30T15:59:49.335Z,95456.00
2018-07-30T16:02:20.503Z,95454.00
2018-07-30T16:04:51.637Z,95454.00
2018-07-30T16:07:22.684Z,95454.00
2018-07-30T16:09:53.952Z,95460.00
2018-07-30T16:12:25.092Z,95458.00
2018-07-30T16:14:56.185Z,95463.00
2018-07-30T16:17:27.706Z,95460.00
2018-07-30T16:19:58.712Z,95464.00
2018-07-30T16:22:30.256Z,95461.00
2018-07-30T16:25:02.801Z,95460.00
2018-07-30T16:27:35.034Z,95462.00
2018-07-30T16:30:12.143Z,95462.00
2018-07-30T16:32:43.563Z,95465.00
2018-07-30T16:35:14.636Z,95462.00
2018-07-30T16:37:45.575Z,95466.00
2018-07-30T16:40:19.100Z,95473.00
2018-07-30T16:42:50.096Z,95479.00
2018-07-30T16:45:20.909Z,95477.00
2018-07-30T16:47:51.848Z,95479.00
2018-07-30T16:50:24.073Z,95477.00
2018-07-30T16:52:54.958Z,95479.00
2018-07-30T16:55:25.791Z,95482.00
2018-07-30T16:58:05.876Z,95480.00
2018-07-30T17:00:37.020Z,95483.00
2018-07-30T17:03:11.600Z,95477.00
2018-07-30T17:05:55.203Z,95480.00
2018-07-30T17:08:26.375Z,95484.00
2018-07-30T17:11:03.633Z,95481.00
2018-07-30T17:13:34.723Z,95484.00
2018-07-30T17:16:09.413Z,95486.00
2018-07-30T17:18:40.341Z,95486.00
2018-07-30T17:21:11.314Z,95487.00
2018-07-30T17:23:42.191Z,95487.00
2018-07-30T17:26:13.373Z,95486.00
2018-07-30T17:28:44.320Z,95489.00
2018-07-30T17:31:15.391Z,95490.00
2018-07-30T17:33:46.488Z,95487.00
2018-07-30T17:36:17.563Z,95491.00
2018-07-30T17:38:48.646Z,95495.00
2018-07-30T17:41:19.548Z,95496.00
2018-07-30T17:43:50.694Z,95498.00
2018-07-30T17:46:21.903Z,95496.00
2018-07-30T17:48:53.299Z,95507.00
2018-07-30T17:51:24.322Z,95506.00
2018-07-30T17:53:55.367Z,95500.00
2018-07-30T17:56:26.571Z,95500.00
2018-07-30T17:58:57.735Z,95503.00
2018-07-30T18:01:28.931Z,95499.00
2018-07-30T18:04:00.065Z,95499.00
2018-07-30T18:06:31.487Z,95498.00
2018-07-30T18:09:02.484Z,95499.00
2018-07-30T18:11:33.595Z,95502.00
2018-07-30T18:14:04.851Z,95508.00
2018-07-30T18:16:35.900Z,95508.00
2018-07-30T18:19:06.856Z,95510.00
2018-07-30T18:21:37.940Z,95510.00
2018-07-30T18:24:09.007Z,95517.00
2018-07-30T18:26:40.120Z,95520.00
2018-07-30T18:29:11.021Z,95523.00
2018-07-30T18:31:42.019Z,95527.00
2018-07-30T18:34:13.084Z,95526.00
2018-07-30T18:36:44.144Z,95528.00
2018-07-30T18:39:15.243Z,95533.00
2018-07-30T18:41:46.310Z,95536.00
2018-07-30T18:44:18.167Z,95533.00
2018-07-30T18:46:49.295Z,95542.00
2018-07-30T18:49:20.428Z,95541.00
2018-07-30T18:51:51.423Z,95543.00
2018-07-30T18:54:22.488Z,95542.00
2018-07-30T18:56:53.744Z,95549.00
2018-07-30T18:59:24.784Z,95552.00
2018-07-30T19:01:59.712Z,95557.00
2018-07-30T19:04:31.740Z,95563.00
2018-07-30T19:07:03.356Z,95563.00
2018-07-30T19:09:34.467Z,95564.00
2018-07-30T19:12:07.224Z,95569.00
2018-07-30T19:14:38.311Z,95576.00
2018-07-30T19:17:09.375Z,95580.00
2018-07-30T19:19:40.572Z,95585.00
2018-07-30T19:22:11.699Z,95589.00
2018-07-30T19:24:43.221Z,95589.00
2018-07-30T19:27:14.446Z,95589.00
2018-07-30T19:29:45.725Z,95594.00
2018-07-30T19:32:17.376Z,95594.00
2018-07-30T19:34:48.865Z,95598.00
2018-07-30T19:37:20.128Z,95596.00
2018-07-30T19:39:51.236Z,95595.00
2018-07-30T19:42:24.536Z,95603.00
2018-07-30T19:44:55.639Z,95603.00
2018-07-30T19:47:27.669Z,95605.00
2018-07-30T19:49:58.684Z,95609.00
2018-07-30T19:52:29.701Z,95610.00
2018-07-30T19:55:00.846Z,95610.00
2018-07-30T19:57:32.736Z,95614.00
2018-07-30T20:00:04.563Z,95613.00
2018-07-30T20:02:35.728Z,95610.00
2018-07-30T20:05:09.548Z,95610.00
2018-07-30T20:07:40.464Z,95610.00
2018-07-30T20:10:12.110Z,95617.00
2018-07-30T20:12:43.325Z,95617.00
2018-07-30T20:15:14.392Z,95619.00
2018-07-30T20:17:45.649Z,95617.00
2018-07-30T20:20:17.887Z,95624.00
2018-07-30T20:22:49.048Z,95623.00
2018-07-30T20:25:20.892Z,95623.00
2018-07-30T20:27:52.891Z,95623.00
2018-07-30T20:30:24.455Z,95627.00
2018-07-30T20:32:55.396Z,95628.00
2018-07-30T20:35:27.659Z,95627.00
2018-07-30T20:37:59.204Z,95626.00
2018-07-30T20:40:32.688Z,95629.00
2018-07-30T20:43:04.815Z,95632.00
2018-07-30T20:45:36.333Z,95632.00
2018-07-30T20:48:08.144Z,95630.00
2018-07-30T20:50:40.294Z,95632.00
2018-07-30T20:53:11.231Z,95633.00
2018-07-30T20:55:42.225Z,95634.00
2018-07-30T20:58:13.705Z,95636.00
2018-07-30T21:00:44.772Z,95635.00
2018-07-30T21:03:15.844Z,95635.00
2018-07-30T21:05:46.856Z,95632.00
2018-07-30T21:08:18.844Z,95631.00
2018-07-30T21:10:50.436Z,95634.00
2018-07-30T21:13:21.483Z,95639.00
2018-07-30T21:15:52.548Z,95641.00
2018-07-30T21:18:23.747Z,95641.00
2018-07-30T21:20:54.871Z,95638.00
2018-07-30T21:23:26.107Z,95635.00
2018-07-30T21:25:57.074Z,95641.00
2018-07-30T21:28:28.414Z,95638.00
2018-07-30T21:30:59.794Z,95637.00
2018-07-30T21:33:31.924Z,95634.00
2018-07-30T22:47:41.730Z,95647.00
2018-07-30T22:50:12.863Z,95650.00
2018-07-30T22:52:43.939Z,95655.00
2018-07-30T22:55:16.137Z,95650.00
2018-07-30T22:57:48.247Z,95656.00
2018-07-30T23:00:19.370Z,95651.00
2018-07-30T23:02:50.311Z,95656.00
2018-07-30T23:05:22.964Z,95652.00
2018-07-30T23:07:54.815Z,95656.00
2018-07-30T23:10:26.518Z,95652.00
2018-07-30T23:12:57.754Z,95652.00
2018-07-30T23:15:28.755Z,95652.00
2018-07-30T23:17:59.885Z,95655.00
2018-07-30T23:20:32.089Z,95650.00
2018-07-30T23:23:04.406Z,95653.00
2018-07-30T23:25:35.557Z,95648.00
2018-07-30T23:28:07.532Z,95654.00
2018-07-30T23:30:40.210Z,95649.00
2018-07-30T23:33:12.333Z,95650.00
2018-07-30T23:35:43.558Z,95648.00
2018-07-30T23:38:15.114Z,95650.00
2018-07-30T23:40:46.428Z,95652.00
2018-07-30T23:43:17.493Z,95648.00
2018-07-30T23:45:48.547Z,95647.00
2018-07-30T23:48:19.743Z,95645.00
2018-07-30T23:50:50.829Z,95648.00
2018-07-30T23:53:22.695Z,95653.00
2018-07-30T23:55:54.005Z,95654.00
2018-07-30T23:58:25.942Z,95656.00
